createdAt,value
2022-07-25T00:01:45.797Z,54.19
2022-07-25T00:04:14.529Z,54.25
2022-07-25T00:06:43.000Z,54.00
2022-07-25T00:09:10.603Z,54.02
2022-07-25T00:11:37.906Z,53.52
2022-07-25T00:14:05.320Z,53.61
2022-07-25T00:16:32.443Z,53.76
2022-07-25T00:18:59.332Z,53.60
2022-07-25T00:21:26.284Z,53.85
2022-07-25T00:23:53.074Z,53.93
2022-07-25T00:26:19.879Z,53.42
2022-07-25T00:28:46.706Z,53.38
2022-07-25T00:31:13.576Z,53.41
2022-07-25T00:33:40.615Z,53.95
2022-07-25T00:36:08.459Z,53.81
2022-07-25T00:38:35.425Z,53.69
2022-07-25T00:41:03.088Z,53.53
2022-07-25T00:43:29.883Z,53.34
2022-07-25T00:45:59.534Z,53.46
2022-07-25T00:48:29.866Z,53.35
2022-07-25T00:50:57.144Z,53.21
2022-07-25T00:53:24.470Z,53.68
2022-07-25T00:55:51.977Z,53.33
2022-07-25T00:58:19.051Z,53.29
2022-07-25T01:00:46.166Z,53.33
2022-07-25T01:03:13.045Z,53.17
2022-07-25T01:05:39.884Z,53.47
2022-07-25T01:08:06.702Z,53.52
2022-07-25T01:10:34.181Z,53.15
2022-07-25T01:13:01.080Z,53.27
2022-07-25T01:15:28.037Z,53.54
2022-07-25T01:17:54.776Z,53.05
2022-07-25T01:20:24.110Z,53.29
2022-07-25T01:22:51.420Z,53.29
2022-07-25T01:25:19.608Z,53.02
2022-07-25T01:27:51.252Z,53.52
2022-07-25T01:30:22.050Z,53.31
2022-07-25T01:32:48.785Z,53.34
2022-07-25T01:35:15.698Z,53.54
2022-07-25T01:37:42.428Z,53.37
2022-07-25T01:40:13.984Z,53.31
2022-07-25T01:42:41.558Z,53.44
2022-07-25T01:45:09.078Z,53.63
2022-07-25T01:47:35.775Z,53.70
2022-07-25T01:50:02.699Z,53.10
2022-07-25T01:52:29.403Z,53.30
2022-07-25T01:54:56.508Z,53.19
2022-07-25T01:57:23.298Z,53.29
2022-07-25T01:59:57.651Z,52.62
2022-07-25T02:02:24.469Z,53.03
2022-07-25T02:04:51.270Z,53.07
2022-07-25T02:07:18.052Z,52.81
2022-07-25T02:09:44.786Z,52.45
2022-07-25T02:12:11.513Z,52.25
2022-07-25T02:14:38.271Z,52.71
2022-07-25T02:17:05.110Z,52.62
2022-07-25T02:19:32.683Z,52.50
2022-07-25T02:21:59.404Z,52.35
2022-07-25T02:24:26.148Z,52.63
2022-07-25T02:26:52.866Z,52.36
2022-07-25T02:29:21.829Z,52.54
2022-07-25T02:31:53.235Z,52.16
2022-07-25T02:34:19.972Z,51.78
2022-07-25T02:36:46.741Z,51.89
2022-07-25T02:39:13.464Z,51.53
2022-07-25T02:41:40.371Z,51.94
2022-07-25T02:44:07.615Z,51.90
2022-07-25T02:46:34.650Z,51.76
2022-07-25T02:49:02.004Z,51.42
2022-07-25T02:51:28.969Z,51.83
2022-07-25T02:53:57.620Z,51.84
2022-07-25T02:56:25.350Z,51.63
2022-07-25T02:58:52.029Z,51.78
2022-07-25T03:01:18.873Z,51.60
2022-07-25T03:03:45.709Z,51.58
2022-07-25T03:06:12.431Z,52.06
2022-07-25T03:08:39.313Z,51.67
2022-07-25T03:11:06.386Z,52.23
2022-07-25T03:13:33.426Z,52.16
2022-07-25T03:16:00.415Z,51.43
2022-07-25T03:18:27.282Z,51.62
2022-07-25T03:20:54.238Z,51.81
2022-07-25T03:23:20.985Z,51.87
2022-07-25T03:25:47.714Z,52.01
2022-07-25T03:28:14.433Z,51.76
2022-07-25T03:30:41.202Z,51.63
2022-07-25T03:33:08.171Z,51.56
2022-07-25T03:35:35.310Z,51.96
2022-07-25T03:38:02.154Z,51.91
2022-07-25T03:40:28.928Z,52.28
2022-07-25T03:42:55.674Z,51.58
2022-07-25T03:45:22.496Z,51.71
2022-07-25T03:47:49.326Z,52.06
2022-07-25T03:50:16.142Z,51.94
2022-07-25T03:52:42.880Z,52.12
2022-07-25T03:55:11.082Z,51.96
2022-07-25T03:57:38.407Z,52.30
2022-07-25T04:00:09.713Z,52.40
2022-07-25T04:02:38.005Z,52.14
2022-07-25T04:05:06.538Z,52.65
2022-07-25T04:07:33.441Z,52.73
2022-07-25T04:10:00.195Z,52.84
2022-07-25T04:12:26.880Z,52.87
2022-07-25T04:14:53.575Z,52.58
2022-07-25T04:17:20.529Z,52.55
2022-07-25T04:19:48.287Z,53.33
2022-07-25T04:22:15.931Z,53.83
2022-07-25T04:24:42.663Z,54.04
2022-07-25T04:27:09.388Z,54.02
2022-07-25T04:29:36.107Z,54.21
2022-07-25T04:32:02.889Z,54.71
2022-07-25T04:34:29.724Z,53.97
2022-07-25T04:36:56.437Z,54.00
2022-07-25T04:39:23.219Z,54.64
2022-07-25T04:41:50.121Z,54.46
2022-07-25T04:44:16.900Z,52.40
2022-07-25T04:46:43.634Z,51.71
2022-07-25T04:49:10.410Z,52.20
2022-07-25T04:51:37.271Z,51.24
2022-07-25T04:54:04.356Z,51.13
2022-07-25T04:56:31.376Z,50.85
2022-07-25T04:59:01.858Z,50.94
2022-07-25T05:01:31.794Z,50.78
2022-07-25T05:03:58.559Z,50.05
2022-07-25T05:06:25.353Z,50.57
2022-07-25T05:08:52.165Z,49.98
2022-07-25T05:11:18.956Z,48.80
2022-07-25T05:13:45.707Z,48.82
2022-07-25T05:16:12.485Z,49.02
2022-07-25T05:18:39.267Z,48.64
2022-07-25T05:21:05.981Z,47.59
2022-07-25T05:23:32.759Z,47.90
2022-07-25T05:25:59.482Z,47.49
2022-07-25T05:28:26.187Z,47.01
2022-07-25T05:30:52.889Z,46.05
2022-07-25T05:33:19.588Z,45.26
2022-07-25T05:35:46.533Z,45.17
2022-07-25T05:38:13.290Z,45.00
2022-07-25T05:40:39.996Z,44.56
2022-07-25T05:43:09.536Z,44.31
2022-07-25T05:45:36.277Z,44.56
2022-07-25T05:48:03.045Z,43.25
2022-07-25T05:50:29.727Z,43.63
2022-07-25T05:52:56.438Z,44.27
2022-07-25T05:55:23.134Z,42.81
2022-07-25T05:57:49.840Z,43.17
2022-07-25T06:00:16.822Z,42.97
2022-07-25T06:02:43.741Z,42.78
2022-07-25T06:05:10.543Z,43.12
2022-07-25T06:07:37.296Z,41.23
2022-07-25T06:10:04.986Z,40.93
2022-07-25T06:12:33.771Z,40.92
2022-07-25T06:15:04.556Z,40.66
2022-07-25T06:17:32.648Z,40.77
2022-07-25T06:19:59.599Z,40.88
2022-07-25T06:22:26.268Z,40.04
2022-07-25T06:24:53.027Z,39.59
2022-07-25T06:27:21.602Z,39.62
2022-07-25T06:29:49.910Z,39.04
2022-07-25T06:32:16.636Z,39.17
2022-07-25T06:34:43.784Z,38.37
2022-07-25T06:37:10.569Z,38.77
2022-07-25T06:39:38.745Z,38.46
2022-07-25T06:42:07.186Z,38.25
2022-07-25T06:44:35.123Z,37.29
2022-07-25T06:47:02.710Z,36.78
2022-07-25T06:49:29.721Z,37.14
2022-07-25T06:51:56.414Z,37.38
2022-07-25T06:54:23.209Z,36.25
2022-07-25T06:56:49.998Z,36.52
2022-07-25T06:59:16.697Z,35.69
2022-07-25T07:01:45.966Z,35.79
2022-07-25T07:04:16.598Z,35.01
2022-07-25T07:06:44.031Z,35.36
2022-07-25T07:09:10.885Z,36.22
2022-07-25T07:11:37.810Z,35.48
2022-07-25T07:14:05.358Z,35.68
2022-07-25T07:16:32.514Z,33.66
2022-07-25T07:18:59.391Z,34.14
2022-07-25T07:21:26.155Z,34.24
2022-07-25T07:23:53.504Z,32.99
2022-07-25T07:26:20.669Z,33.08
2022-07-25T07:28:47.495Z,32.85
2022-07-25T07:31:17.895Z,32.55
2022-07-25T07:33:45.801Z,33.14
2022-07-25T07:36:12.712Z,32.58
2022-07-25T07:38:40.188Z,31.75
2022-07-25T07:41:07.110Z,32.05
2022-07-25T07:43:34.034Z,32.47
2022-07-25T07:46:01.301Z,30.50
2022-07-25T07:48:32.886Z,30.68
2022-07-25T07:51:00.657Z,29.81
2022-07-25T07:53:47.818Z,30.03
2022-07-25T07:56:15.469Z,29.54
2022-07-25T07:58:42.312Z,29.83
2022-07-25T08:01:09.049Z,30.29
2022-07-25T08:03:36.287Z,29.49
2022-07-25T08:06:03.006Z,29.71
2022-07-25T08:08:31.546Z,29.33
2022-07-25T08:10:59.454Z,29.29
2022-07-25T08:13:31.654Z,28.38
2022-07-25T08:16:01.536Z,28.48
2022-07-25T08:18:30.130Z,28.54
2022-07-25T08:20:57.012Z,28.69
2022-07-25T08:23:25.433Z,29.27
2022-07-25T08:25:52.422Z,28.96
2022-07-25T08:28:19.551Z,28.95
2022-07-25T08:30:46.665Z,29.42
2022-07-25T08:33:16.310Z,27.87
2022-07-25T08:36:01.311Z,27.65
2022-07-25T08:38:28.861Z,27.92
2022-07-25T08:40:56.818Z,27.86
2022-07-25T08:43:23.839Z,27.41
2022-07-25T08:45:52.880Z,28.99
2022-07-25T08:48:25.104Z,27.41
2022-07-25T08:50:53.064Z,26.80
2022-07-25T08:53:36.616Z,27.83
2022-07-25T08:56:11.136Z,26.72
2022-07-25T08:58:41.651Z,26.63
2022-07-25T09:01:08.716Z,27.52
2022-07-25T09:03:36.497Z,27.35
2022-07-25T09:06:19.935Z,27.30
2022-07-25T09:08:57.784Z,27.08
2022-07-25T09:11:28.255Z,26.47
2022-07-25T09:14:07.396Z,27.07
2022-07-25T09:16:40.934Z,26.22
2022-07-25T09:19:15.056Z,26.38
2022-07-25T09:21:44.042Z,25.67
2022-07-25T09:24:16.184Z,25.42
2022-07-25T09:26:44.337Z,25.44
2022-07-25T09:29:22.191Z,25.32
2022-07-25T09:31:49.833Z,25.30
2022-07-25T09:34:20.870Z,25.47
2022-07-25T09:36:54.760Z,25.15
2022-07-25T09:39:21.651Z,25.21
2022-07-25T09:41:49.694Z,26.26
2022-07-25T09:44:23.250Z,25.71
2022-07-25T09:46:50.776Z,24.84
2022-07-25T09:49:17.570Z,24.89
2022-07-25T09:51:44.567Z,24.29
2022-07-25T09:54:11.821Z,24.81
2022-07-25T09:56:38.637Z,23.94
2022-07-25T09:59:06.085Z,24.30
2022-07-25T10:01:38.442Z,24.29
2022-07-25T10:04:25.204Z,24.57
2022-07-25T10:07:06.892Z,24.41
2022-07-25T10:09:34.209Z,24.40
2022-07-25T10:12:11.710Z,24.05
2022-07-25T10:14:38.955Z,22.92
2022-07-25T10:17:06.489Z,24.29
2022-07-25T10:22:46.462Z,24.58
2022-07-25T10:25:20.723Z,22.30
2022-07-25T10:27:49.322Z,22.58
2022-07-25T10:30:24.142Z,23.02
2022-07-25T10:32:56.873Z,22.82
2022-07-25T10:35:23.625Z,21.25
2022-07-25T10:37:55.000Z,22.38
2022-07-25T10:40:33.150Z,21.79
2022-07-25T10:43:23.243Z,22.14
2022-07-25T10:45:52.968Z,21.79
2022-07-25T10:48:26.647Z,22.75
2022-07-25T10:51:04.490Z,21.29
2022-07-25T10:53:45.487Z,22.64
2022-07-25T10:56:16.170Z,21.69
2022-07-25T10:58:50.028Z,21.96
2022-07-25T11:01:30.053Z,22.77
2022-07-25T11:04:01.971Z,22.13
2022-07-25T11:06:36.115Z,21.73
2022-07-25T11:09:05.298Z,21.96
2022-07-25T11:11:37.563Z,21.27
2022-07-25T11:14:05.694Z,20.02
2022-07-25T11:16:32.517Z,21.77
2022-07-25T11:18:59.408Z,20.32
2022-07-25T11:21:26.118Z,18.98
2022-07-25T11:23:52.960Z,19.53
2022-07-25T11:26:20.419Z,18.68
2022-07-25T11:28:49.417Z,19.25
2022-07-25T11:31:18.071Z,18.80
2022-07-25T11:33:48.256Z,18.22
2022-07-25T11:36:15.937Z,17.52
2022-07-25T11:38:42.968Z,17.56
2022-07-25T11:41:09.983Z,17.31
2022-07-25T11:43:37.384Z,18.24
2022-07-25T11:46:07.369Z,17.07
2022-07-25T11:48:40.491Z,17.10
2022-07-25T11:51:14.969Z,18.26
2022-07-25T11:53:50.876Z,16.97
2022-07-25T11:56:43.812Z,16.76
2022-07-25T11:59:11.697Z,15.45
2022-07-25T12:01:40.536Z,16.04
2022-07-25T12:04:20.143Z,15.97
2022-07-25T12:06:48.869Z,16.29
2022-07-25T12:09:19.151Z,16.96
2022-07-25T12:11:47.585Z,16.50
2022-07-25T12:14:15.026Z,15.81
2022-07-25T12:16:42.249Z,16.09
2022-07-25T12:19:19.983Z,15.82
2022-07-25T12:21:47.034Z,15.66
2022-07-25T12:24:14.153Z,16.19
2022-07-25T12:26:40.925Z,16.73
2022-07-25T12:29:07.921Z,17.27
2022-07-25T12:31:35.071Z,16.96
2022-07-25T12:34:01.899Z,18.42
2022-07-25T12:36:28.924Z,18.47
2022-07-25T12:38:55.750Z,18.85
2022-07-25T12:41:23.705Z,19.49
2022-07-25T12:43:53.502Z,19.60
2022-07-25T12:46:20.389Z,20.37
2022-07-25T12:48:47.540Z,20.23
2022-07-25T12:51:14.442Z,20.57
2022-07-25T12:53:42.606Z,20.50
2022-07-25T12:56:09.981Z,21.22
2022-07-25T12:58:37.601Z,20.66
2022-07-25T13:01:06.331Z,20.72
2022-07-25T13:03:34.820Z,21.43
2022-07-25T13:06:03.124Z,20.90
2022-07-25T13:08:32.726Z,21.05
2022-07-25T13:11:03.359Z,21.46
2022-07-25T13:13:32.484Z,21.25
2022-07-25T13:16:01.230Z,21.47
2022-07-25T13:18:32.839Z,21.27
2022-07-25T13:21:00.937Z,20.73
2022-07-25T13:23:28.139Z,22.11
2022-07-25T13:25:55.082Z,20.74
2022-07-25T13:28:21.917Z,21.48
2022-07-25T13:30:48.847Z,21.02
2022-07-25T13:33:17.039Z,21.97
2022-07-25T13:35:43.806Z,21.91
2022-07-25T13:38:11.549Z,21.71
2022-07-25T13:40:41.202Z,21.88
2022-07-25T13:43:12.430Z,22.66
2022-07-25T13:45:42.999Z,21.49
2022-07-25T13:48:29.181Z,21.36
2022-07-25T13:50:57.518Z,21.73
2022-07-25T13:53:29.450Z,21.33
2022-07-25T13:55:58.407Z,21.80
2022-07-25T13:58:25.838Z,21.68
2022-07-25T14:00:59.612Z,21.66
2022-07-25T14:03:28.226Z,21.37
2022-07-25T14:05:55.110Z,21.53
2022-07-25T14:08:25.537Z,21.97
2022-07-25T14:10:53.149Z,21.60
2022-07-25T14:13:19.949Z,22.35
2022-07-25T14:15:46.769Z,22.58
2022-07-25T14:18:13.486Z,21.78
2022-07-25T14:20:40.316Z,21.37
2022-07-25T14:23:07.089Z,20.96
2022-07-25T14:25:34.046Z,21.87
2022-07-25T14:28:01.822Z,21.30
2022-07-25T14:30:28.736Z,21.15
2022-07-25T14:32:55.947Z,21.28
2022-07-25T14:35:28.784Z,21.83
2022-07-25T14:37:59.079Z,21.82
2022-07-25T14:40:25.891Z,21.73
2022-07-25T14:42:52.623Z,21.72
2022-07-25T14:45:19.619Z,21.82
2022-07-25T14:47:46.553Z,21.81
2022-07-25T14:50:13.457Z,21.55
2022-07-25T14:52:40.154Z,21.97
2022-07-25T14:55:07.880Z,21.80
2022-07-25T14:57:34.766Z,22.79
2022-07-25T15:00:02.311Z,23.08
2022-07-25T15:02:29.101Z,22.63
2022-07-25T15:04:56.250Z,22.67
2022-07-25T15:07:23.197Z,22.81
2022-07-25T15:09:50.105Z,23.62
2022-07-25T15:12:17.379Z,23.22
2022-07-25T15:14:44.468Z,22.47
2022-07-25T15:17:12.223Z,23.50
2022-07-25T15:19:39.169Z,23.64
2022-07-25T15:22:06.117Z,23.48
2022-07-25T15:24:50.125Z,22.30
2022-07-25T15:27:20.018Z,23.36
2022-07-25T15:29:47.114Z,23.67
2022-07-25T15:32:14.059Z,23.39
2022-07-25T15:34:41.058Z,23.14
2022-07-25T15:37:09.198Z,26.04
2022-07-25T15:39:36.055Z,25.20
2022-07-25T15:42:03.066Z,23.48
2022-07-25T15:44:32.753Z,23.88
2022-07-25T15:46:59.812Z,24.16
2022-07-25T15:49:26.931Z,24.06
2022-07-25T15:51:53.879Z,23.61
2022-07-25T15:54:22.925Z,22.57
2022-07-25T15:56:52.334Z,22.79
2022-07-25T15:59:19.058Z,22.05
2022-07-25T16:01:46.079Z,22.21
2022-07-25T16:04:13.513Z,22.47
2022-07-25T16:06:41.598Z,22.70
2022-07-25T16:09:12.394Z,23.18
2022-07-25T16:11:39.386Z,23.73
2022-07-25T16:14:06.477Z,23.48
2022-07-25T16:16:33.598Z,24.29
2022-07-25T16:19:00.709Z,23.57
2022-07-25T16:21:27.652Z,23.77
2022-07-25T16:23:54.735Z,25.60
2022-07-25T16:26:22.834Z,23.99
2022-07-25T16:28:54.062Z,23.16
2022-07-25T16:31:24.587Z,23.27
2022-07-25T16:33:51.657Z,24.09
2022-07-25T16:36:20.714Z,24.24
2022-07-25T16:38:49.339Z,25.72
2022-07-25T16:41:20.915Z,24.87
2022-07-25T16:43:49.051Z,25.93
2022-07-25T16:46:15.882Z,27.39
2022-07-25T16:48:42.692Z,29.53
2022-07-25T16:51:09.654Z,30.38
2022-07-25T16:53:36.746Z,31.36
2022-07-25T16:56:04.383Z,31.38
2022-07-25T16:58:31.311Z,31.93
2022-07-25T17:00:59.425Z,32.03
2022-07-25T17:03:26.535Z,32.37
2022-07-25T17:05:54.761Z,32.91
2022-07-25T17:08:21.562Z,32.77
2022-07-25T17:10:48.557Z,33.57
2022-07-25T17:13:15.394Z,33.59
2022-07-25T17:15:43.770Z,34.55
2022-07-25T17:18:10.577Z,34.39
2022-07-25T17:20:37.558Z,34.36
2022-07-25T17:23:04.532Z,33.82
2022-07-25T17:25:32.013Z,34.84
2022-07-25T17:27:59.702Z,36.34
2022-07-25T17:30:27.197Z,37.60
2022-07-25T17:32:54.340Z,39.93
2022-07-25T17:35:21.884Z,43.73
2022-07-25T17:37:49.236Z,43.57
2022-07-25T17:40:16.559Z,46.59
2022-07-25T17:42:45.572Z,44.68
2022-07-25T17:45:12.707Z,45.24
2022-07-25T17:47:40.058Z,44.06
2022-07-25T17:50:07.158Z,43.43
2022-07-25T17:52:33.883Z,48.13
2022-07-25T17:55:01.052Z,44.83
2022-07-25T17:57:28.432Z,42.27
2022-07-25T17:59:55.681Z,42.24
2022-07-25T18:02:22.578Z,41.12
2022-07-25T18:04:49.527Z,42.08
2022-07-25T18:07:16.699Z,46.92
2022-07-25T18:09:43.493Z,44.66
2022-07-25T18:12:11.024Z,44.91
2022-07-25T18:14:38.378Z,48.29
2022-07-25T18:17:06.384Z,45.59
2022-07-25T18:19:33.838Z,46.59
2022-07-25T18:22:00.742Z,46.45
2022-07-25T18:24:29.531Z,47.45
2022-07-25T18:26:58.844Z,48.45
2022-07-25T18:29:26.027Z,49.79
2022-07-25T18:31:53.875Z,49.13
2022-07-25T18:34:20.800Z,48.42
2022-07-25T18:36:48.259Z,49.78
2022-07-25T18:39:15.143Z,48.43
2022-07-25T18:41:41.925Z,49.54
2022-07-25T18:44:09.330Z,48.74
2022-07-25T18:46:36.467Z,48.41
2022-07-25T18:49:03.454Z,47.48
2022-07-25T18:51:30.285Z,48.34
2022-07-25T18:53:57.169Z,48.26
2022-07-25T18:56:24.092Z,48.29
2022-07-25T18:58:50.918Z,48.83
2022-07-25T19:01:17.760Z,48.24
2022-07-25T19:03:44.581Z,48.72
2022-07-25T19:06:11.678Z,48.42
2022-07-25T19:08:39.793Z,49.29
2022-07-25T19:11:06.876Z,49.25
2022-07-25T19:13:51.110Z,50.37
2022-07-25T19:16:18.582Z,49.04
2022-07-25T19:18:45.432Z,48.90
2022-07-25T19:21:12.229Z,47.83
2022-07-25T19:23:39.240Z,48.26
2022-07-25T19:26:06.399Z,49.07
2022-07-25T19:28:33.218Z,49.85
2022-07-25T19:31:00.028Z,49.65
2022-07-25T19:33:34.999Z,49.28
2022-07-25T19:36:04.397Z,49.27
2022-07-25T19:38:31.558Z,48.57
2022-07-25T19:40:59.051Z,49.43
2022-07-25T19:43:25.940Z,49.00
2022-07-25T19:45:52.757Z,49.00
2022-07-25T19:48:23.894Z,49.57
2022-07-25T19:50:51.747Z,49.27
2022-07-25T19:53:19.171Z,50.17
2022-07-25T19:55:46.006Z,49.74
2022-07-25T19:58:13.060Z,50.05
2022-07-25T20:00:40.446Z,49.85
2022-07-25T20:03:07.436Z,49.38
2022-07-25T20:05:34.875Z,48.46
2022-07-25T20:08:01.821Z,48.84
2022-07-25T20:10:28.854Z,49.07
2022-07-25T20:12:59.540Z,48.68
2022-07-25T20:15:28.487Z,49.63
2022-07-25T20:17:56.841Z,50.21
2022-07-25T20:20:24.586Z,50.07
2022-07-25T20:22:51.661Z,50.02
2022-07-25T20:25:18.681Z,50.54
2022-07-25T20:27:45.522Z,52.38
2022-07-25T20:30:13.491Z,52.90
2022-07-25T20:32:40.335Z,52.45
2022-07-25T20:35:07.636Z,53.20
2022-07-25T20:37:35.575Z,54.34
2022-07-25T20:40:02.474Z,55.17
2022-07-25T20:42:29.275Z,55.13
2022-07-25T20:44:56.825Z,55.67
2022-07-25T20:47:23.873Z,55.78
2022-07-25T20:49:50.862Z,56.17
2022-07-25T20:52:17.815Z,56.22
2022-07-25T20:54:44.599Z,55.76
2022-07-25T20:57:11.891Z,56.49
2022-07-25T20:59:38.601Z,56.69
2022-07-25T21:02:05.363Z,55.78
2022-07-25T21:04:32.117Z,56.09
2022-07-25T21:06:58.907Z,55.85
2022-07-25T21:09:28.467Z,55.80
2022-07-25T21:11:59.138Z,55.30
2022-07-25T21:14:27.098Z,55.62
2022-07-25T21:16:54.285Z,55.34
2022-07-25T21:19:21.129Z,55.77
2022-07-25T21:21:48.695Z,55.30
2022-07-25T21:24:15.535Z,55.69
2022-07-25T21:26:42.486Z,55.88
2022-07-25T21:29:09.785Z,55.53
2022-07-25T21:31:37.614Z,56.04
2022-07-25T21:34:04.553Z,56.42
2022-07-25T21:36:31.264Z,56.18
2022-07-25T21:38:58.262Z,55.98
2022-07-25T21:41:25.054Z,57.23
2022-07-25T21:43:51.784Z,63.94
2022-07-25T21:46:18.598Z,65.10
2022-07-25T21:49:04.171Z,66.05
2022-07-25T21:51:40.631Z,66.94
2022-07-25T21:54:08.186Z,67.21
2022-07-25T21:56:35.062Z,67.71
2022-07-25T21:59:01.941Z,68.29
2022-07-25T22:01:28.887Z,68.72
2022-07-25T22:03:55.990Z,68.82
2022-07-25T22:06:22.982Z,68.59
2022-07-25T22:08:52.163Z,68.85
2022-07-25T22:11:38.667Z,68.88
2022-07-25T22:14:05.854Z,69.01
2022-07-25T22:16:32.731Z,69.21
2022-07-25T22:18:59.891Z,69.96
2022-07-25T22:21:26.760Z,70.17
2022-07-25T22:23:53.499Z,70.38
2022-07-25T22:26:20.482Z,70.77
2022-07-25T22:28:47.875Z,70.42
2022-07-25T22:31:15.237Z,70.26
2022-07-25T22:33:42.251Z,70.90
2022-07-25T22:36:09.124Z,70.79
2022-07-25T22:38:36.780Z,70.65
2022-07-25T22:41:03.536Z,70.65
2022-07-25T22:43:58.271Z,70.37
2022-07-25T22:46:17.135Z,71.12
2022-07-25T22:48:44.068Z,70.40
2022-07-25T22:51:11.498Z,70.38
2022-07-25T22:53:38.225Z,71.22
2022-07-25T22:56:05.237Z,71.23
2022-07-25T22:58:32.005Z,71.39
2022-07-25T23:00:58.850Z,71.36
2022-07-25T23:03:26.750Z,71.71
2022-07-25T23:05:59.899Z,71.52
2022-07-25T23:08:26.666Z,71.82
2022-07-25T23:10:53.506Z,72.01
2022-07-25T23:13:20.827Z,71.47
2022-07-25T23:15:50.418Z,71.48
2022-07-25T23:18:18.770Z,71.33
2022-07-25T23:20:45.501Z,71.43
2022-07-25T23:23:12.474Z,71.75
2022-07-25T23:25:39.279Z,71.51
2022-07-25T23:28:06.070Z,71.61
2022-07-25T23:30:36.702Z,71.32
2022-07-25T23:33:06.961Z,72.12
2022-07-25T23:35:33.820Z,72.03
2022-07-25T23:38:02.684Z,72.14
2022-07-25T23:40:29.624Z,71.53
2022-07-25T23:42:56.477Z,71.32
2022-07-25T23:45:26.346Z,70.42
2022-07-25T23:47:55.516Z,72.36
2022-07-25T23:50:22.986Z,72.67
2022-07-25T23:52:49.793Z,73.30
2022-07-25T23:55:16.827Z,73.15
2022-07-25T23:57:43.682Z,72.29
